sensor_id;sensor_type;location;lat;lon;timestamp;pressure;altitude;pressure_sealevel;temperature;humidity
73024;BME280;61199;47.526;8.538;2023-02-28T00:00:34;96774.41;;;1.02;64.44
73024;BME280;61199;47.526;8.538;2023-02-28T00:03:02;96774.47;;;1.19;63.51
73024;BME280;61199;47.526;8.538;2023-02-28T00:05:30;96782.13;;;1.02;63.35
73024;BME280;61199;47.526;8.538;2023-02-28T00:07:56;96781.38;;;1.00;63.90
73024;BME280;61199;47.526;8.538;2023-02-28T00:10:25;96783.06;;;1.20;63.36
73024;BME280;61199;47.526;8.538;2023-02-28T00:12:54;96788.91;;;1.23;63.40
73024;BME280;61199;47.526;8.538;2023-02-28T00:15:23;96779.81;;;1.52;62.34
73024;BME280;61199;47.526;8.538;2023-02-28T00:17:50;96782.81;;;1.43;62.40
73024;BME280;61199;47.526;8.538;2023-02-28T00:20:16;96783.16;;;1.54;62.05
73024;BME280;61199;47.526;8.538;2023-02-28T00:22:49;96776.75;;;1.62;61.53
73024;BME280;61199;47.526;8.538;2023-02-28T00:25:18;96784.38;;;1.64;61.84
73024;BME280;61199;47.526;8.538;2023-02-28T00:27:45;96780.78;;;1.68;61.17
73024;BME280;61199;47.526;8.538;2023-02-28T00:30:15;96784.13;;;1.70;61.63
73024;BME280;61199;47.526;8.538;2023-02-28T00:32:43;96781.31;;;1.39;62.20
73024;BME280;61199;47.526;8.538;2023-02-28T00:35:10;96771.09;;;1.54;61.95
73024;BME280;61199;47.526;8.538;2023-02-28T00:37:37;96780.41;;;1.40;61.80
73024;BME280;61199;47.526;8.538;2023-02-28T00:40:05;96780.59;;;1.35;62.35
73024;BME280;61199;47.526;8.538;2023-02-28T00:42:33;96782.97;;;1.40;62.58
73024;BME280;61199;47.526;8.538;2023-02-28T00:45:00;96777.03;;;1.56;61.88
73024;BME280;61199;47.526;8.538;2023-02-28T00:47:27;96772.59;;;1.77;61.32
73024;BME280;61199;47.526;8.538;2023-02-28T00:49:54;96773.34;;;1.79;61.09
73024;BME280;61199;47.526;8.538;2023-02-28T00:52:20;96773.88;;;1.85;60.95
73024;BME280;61199;47.526;8.538;2023-02-28T00:54:47;96771.53;;;1.81;60.76
73024;BME280;61199;47.526;8.538;2023-02-28T00:57:14;96776.13;;;1.93;60.60
73024;BME280;61199;47.526;8.538;2023-02-28T00:59:40;96776.56;;;1.84;60.35
73024;BME280;61199;47.526;8.538;2023-02-28T01:02:06;96775.72;;;1.83;60.29
73024;BME280;61199;47.526;8.538;2023-02-28T01:04:33;96776.78;;;1.96;60.63
73024;BME280;61199;47.526;8.538;2023-02-28T01:06:59;96777.03;;;2.26;59.87
73024;BME280;61199;47.526;8.538;2023-02-28T01:09:26;96777.78;;;2.28;59.42
73024;BME280;61199;47.526;8.538;2023-02-28T01:11:52;96785.94;;;2.20;59.49
73024;BME280;61199;47.526;8.538;2023-02-28T01:14:18;96780.94;;;1.82;60.79
73024;BME280;61199;47.526;8.538;2023-02-28T01:16:45;96783.91;;;1.74;60.93
73024;BME280;61199;47.526;8.538;2023-02-28T01:19:11;96785.06;;;1.86;60.52
73024;BME280;61199;47.526;8.538;2023-02-28T01:21:38;96775.84;;;1.63;61.66
73024;BME280;61199;47.526;8.538;2023-02-28T01:24:05;96774.50;;;1.55;61.58
73024;BME280;61199;47.526;8.538;2023-02-28T01:26:31;96771.03;;;1.56;61.57
73024;BME280;61199;47.526;8.538;2023-02-28T01:28:58;96773.25;;;1.45;61.59
73024;BME280;61199;47.526;8.538;2023-02-28T01:31:24;96774.19;;;1.25;62.53
73024;BME280;61199;47.526;8.538;2023-02-28T01:33:51;96772.34;;;1.46;61.79
73024;BME280;61199;47.526;8.538;2023-02-28T01:36:20;96783.16;;;1.54;61.79
73024;BME280;61199;47.526;8.538;2023-02-28T01:38:47;96784.97;;;1.52;61.98
73024;BME280;61199;47.526;8.538;2023-02-28T01:41:20;96779.47;;;1.22;62.73
73024;BME280;61199;47.526;8.538;2023-02-28T01:46:14;96778.00;;;1.54;62.23
73024;BME280;61199;47.526;8.538;2023-02-28T01:48:54;96776.31;;;1.71;61.53
73024;BME280;61199;47.526;8.538;2023-02-28T01:51:37;96773.69;;;1.54;61.90
73024;BME280;61199;47.526;8.538;2023-02-28T01:54:11;96771.44;;;1.65;61.66
73024;BME280;61199;47.526;8.538;2023-02-28T01:56:44;96780.09;;;1.64;61.17
73024;BME280;61199;47.526;8.538;2023-02-28T01:59:22;96769.25;;;1.75;61.02
73024;BME280;61199;47.526;8.538;2023-02-28T02:01:49;96775.91;;;1.62;61.62
73024;BME280;61199;47.526;8.538;2023-02-28T02:04:16;96769.50;;;1.52;61.95
73024;BME280;61199;47.526;8.538;2023-02-28T02:06:44;96770.44;;;1.68;61.24
73024;BME280;61199;47.526;8.538;2023-02-28T02:09:12;96763.34;;;1.90;60.49
73024;BME280;61199;47.526;8.538;2023-02-28T02:11:40;96764.25;;;1.89;60.70
73024;BME280;61199;47.526;8.538;2023-02-28T02:20:18;96765.25;;;1.51;61.44
73024;BME280;61199;47.526;8.538;2023-02-28T02:29:02;96748.66;;;1.73;61.08
73024;BME280;61199;47.526;8.538;2023-02-28T02:34:21;96746.28;;;1.87;60.38
73024;BME280;61199;47.526;8.538;2023-02-28T02:42:21;96739.91;;;1.59;61.14
73024;BME280;61199;47.526;8.538;2023-02-28T02:45:01;96740.50;;;1.64;61.66
73024;BME280;61199;47.526;8.538;2023-02-28T02:47:33;96745.34;;;1.71;61.53
73024;BME280;61199;47.526;8.538;2023-02-28T02:50:04;96746.31;;;1.69;61.53
73024;BME280;61199;47.526;8.538;2023-02-28T02:52:40;96747.47;;;1.80;61.03
73024;BME280;61199;47.526;8.538;2023-02-28T02:55:09;96747.25;;;2.02;60.65
73024;BME280;61199;47.526;8.538;2023-02-28T02:57:45;96744.06;;;2.14;59.84
73024;BME280;61199;47.526;8.538;2023-02-28T03:00:15;96740.03;;;2.08;60.36
73024;BME280;61199;47.526;8.538;2023-02-28T03:02:44;96741.03;;;2.06;60.34
73024;BME280;61199;47.526;8.538;2023-02-28T03:05:19;96741.47;;;1.97;60.04
73024;BME280;61199;47.526;8.538;2023-02-28T03:07:45;96741.75;;;1.91;61.10
73024;BME280;61199;47.526;8.538;2023-02-28T03:10:37;96740.09;;;1.90;60.73
73024;BME280;61199;47.526;8.538;2023-02-28T03:16:13;96738.84;;;1.63;61.57
73024;BME280;61199;47.526;8.538;2023-02-28T03:19:19;96730.38;;;1.95;60.55
73024;BME280;61199;47.526;8.538;2023-02-28T03:24:49;96732.28;;;1.39;61.98
73024;BME280;61199;47.526;8.538;2023-02-28T03:27:35;96735.63;;;1.41;62.41
73024;BME280;61199;47.526;8.538;2023-02-28T03:30:10;96729.56;;;1.42;61.97
73024;BME280;61199;47.526;8.538;2023-02-28T03:33:05;96739.59;;;1.48;62.27
73024;BME280;61199;47.526;8.538;2023-02-28T03:35:40;96747.50;;;1.62;61.30
73024;BME280;61199;47.526;8.538;2023-02-28T03:38:14;96746.00;;;1.39;62.46
73024;BME280;61199;47.526;8.538;2023-02-28T03:40:47;96743.53;;;1.55;62.01
73024;BME280;61199;47.526;8.538;2023-02-28T03:43:19;96755.44;;;1.76;61.43
73024;BME280;61199;47.526;8.538;2023-02-28T03:45:50;96743.41;;;1.58;61.87
73024;BME280;61199;47.526;8.538;2023-02-28T03:48:30;96749.22;;;1.44;62.09
73024;BME280;61199;47.526;8.538;2023-02-28T03:50:59;96750.03;;;1.28;62.31
73024;BME280;61199;47.526;8.538;2023-02-28T03:53:39;96751.69;;;1.29;62.12
73024;BME280;61199;47.526;8.538;2023-02-28T03:56:20;96756.53;;;1.35;62.17
73024;BME280;61199;47.526;8.538;2023-02-28T03:59:12;96745.09;;;1.40;62.46
73024;BME280;61199;47.526;8.538;2023-02-28T04:01:42;96746.34;;;1.50;61.73
73024;BME280;61199;47.526;8.538;2023-02-28T04:04:10;96752.88;;;1.57;61.52
73024;BME280;61199;47.526;8.538;2023-02-28T04:06:38;96746.75;;;1.60;61.60
73024;BME280;61199;47.526;8.538;2023-02-28T04:09:07;96742.81;;;1.70;61.34
73024;BME280;61199;47.526;8.538;2023-02-28T04:11:46;96744.16;;;1.24;62.67
73024;BME280;61199;47.526;8.538;2023-02-28T04:14:14;96752.28;;;1.34;62.52
73024;BME280;61199;47.526;8.538;2023-02-28T04:16:41;96749.66;;;1.35;62.87
73024;BME280;61199;47.526;8.538;2023-02-28T04:19:09;96744.97;;;1.43;62.47
73024;BME280;61199;47.526;8.538;2023-02-28T04:21:54;96747.47;;;1.45;62.70
73024;BME280;61199;47.526;8.538;2023-02-28T04:24:24;96745.94;;;1.41;62.74
73024;BME280;61199;47.526;8.538;2023-02-28T04:26:53;96753.47;;;1.45;62.04
73024;BME280;61199;47.526;8.538;2023-02-28T04:29:27;96753.25;;;1.50;62.13
73024;BME280;61199;47.526;8.538;2023-02-28T04:31:55;96761.56;;;1.73;61.17
73024;BME280;61199;47.526;8.538;2023-02-28T04:34:25;96760.41;;;1.62;61.42
73024;BME280;61199;47.526;8.538;2023-02-28T04:36:52;96771.69;;;1.59;62.01
73024;BME280;61199;47.526;8.538;2023-02-28T04:39:37;96771.16;;;1.71;61.57
73024;BME280;61199;47.526;8.538;2023-02-28T04:42:04;96776.69;;;1.81;61.22
73024;BME280;61199;47.526;8.538;2023-02-28T04:44:30;96767.28;;;1.44;61.84
73024;BME280;61199;47.526;8.538;2023-02-28T04:46:57;96765.28;;;1.68;61.45
73024;BME280;61199;47.526;8.538;2023-02-28T04:49:24;96774.50;;;1.55;61.75
73024;BME280;61199;47.526;8.538;2023-02-28T04:51:50;96774.69;;;1.69;61.61
73024;BME280;61199;47.526;8.538;2023-02-28T04:54:16;96766.25;;;1.65;61.31
73024;BME280;61199;47.526;8.538;2023-02-28T04:56:44;96769.34;;;1.55;61.94
73024;BME280;61199;47.526;8.538;2023-02-28T04:59:10;96765.28;;;1.68;61.48
73024;BME280;61199;47.526;8.538;2023-02-28T05:01:37;96774.22;;;1.61;61.79
73024;BME280;61199;47.526;8.538;2023-02-28T05:04:04;96774.44;;;1.56;61.30
73024;BME280;61199;47.526;8.538;2023-02-28T05:06:32;96779.81;;;1.52;61.52
73024;BME280;61199;47.526;8.538;2023-02-28T05:08:59;96774.22;;;1.61;61.02
73024;BME280;61199;47.526;8.538;2023-02-28T05:11:28;96769.22;;;1.58;61.60
73024;BME280;61199;47.526;8.538;2023-02-28T05:14:03;96774.31;;;1.76;61.99
73024;BME280;61199;47.526;8.538;2023-02-28T05:16:31;96774.72;;;1.86;61.84
73024;BME280;61199;47.526;8.538;2023-02-28T05:18:57;96782.19;;;1.92;60.85
73024;BME280;61199;47.526;8.538;2023-02-28T05:21:36;96784.88;;;2.07;61.22
73024;BME280;61199;47.526;8.538;2023-02-28T05:24:05;96785.63;;;2.26;59.94
73024;BME280;61199;47.526;8.538;2023-02-28T05:26:40;96797.41;;;2.32;59.97
73024;BME280;61199;47.526;8.538;2023-02-28T05:29:07;96788.13;;;2.28;59.57
73024;BME280;61199;47.526;8.538;2023-02-28T05:31:35;96791.94;;;2.38;59.41
73024;BME280;61199;47.526;8.538;2023-02-28T05:34:02;96796.31;;;2.53;58.85
73024;BME280;61199;47.526;8.538;2023-02-28T05:36:30;96786.91;;;2.52;59.20
73024;BME280;61199;47.526;8.538;2023-02-28T05:38:56;96796.03;;;2.59;58.35
73024;BME280;61199;47.526;8.538;2023-02-28T05:41:23;96795.50;;;2.52;58.52
73024;BME280;61199;47.526;8.538;2023-02-28T05:43:49;96788.81;;;2.31;59.05
73024;BME280;61199;47.526;8.538;2023-02-28T05:46:16;96789.88;;;2.44;58.36
73024;BME280;61199;47.526;8.538;2023-02-28T05:48:46;96793.91;;;2.50;58.12
73024;BME280;61199;47.526;8.538;2023-02-28T05:51:13;96791.25;;;2.17;58.78
73024;BME280;61199;47.526;8.538;2023-02-28T05:53:39;96796.00;;;2.08;60.02
73024;BME280;61199;47.526;8.538;2023-02-28T05:56:06;96796.78;;;2.27;59.35
73024;BME280;61199;47.526;8.538;2023-02-28T05:58:32;96799.06;;;2.33;59.09
73024;BME280;61199;47.526;8.538;2023-02-28T06:01:00;96805.88;;;2.00;59.76
73024;BME280;61199;47.526;8.538;2023-02-28T06:03:27;96806.69;;;1.83;60.00
73024;BME280;61199;47.526;8.538;2023-02-28T06:05:53;96810.19;;;1.82;60.22
73024;BME280;61199;47.526;8.538;2023-02-28T06:08:20;96808.56;;;1.98;60.21
73024;BME280;61199;47.526;8.538;2023-02-28T06:10:46;96812.44;;;1.71;60.77
73024;BME280;61199;47.526;8.538;2023-02-28T06:13:13;96813.69;;;1.63;61.15
73024;BME280;61199;47.526;8.538;2023-02-28T06:15:39;96813.00;;;1.59;61.23
73024;BME280;61199;47.526;8.538;2023-02-28T06:18:06;96809.31;;;1.65;60.71
73024;BME280;61199;47.526;8.538;2023-02-28T06:20:32;96815.09;;;1.70;61.03
73024;BME280;61199;47.526;8.538;2023-02-28T06:22:59;96809.56;;;1.77;60.98
73024;BME280;61199;47.526;8.538;2023-02-28T06:25:27;96819.81;;;1.79;60.75
73024;BME280;61199;47.526;8.538;2023-02-28T06:27:54;96816.22;;;1.83;60.13
73024;BME280;61199;47.526;8.538;2023-02-28T06:30:21;96817.31;;;1.77;60.32
73024;BME280;61199;47.526;8.538;2023-02-28T06:32:53;96820.03;;;1.74;60.54
73024;BME280;61199;47.526;8.538;2023-02-28T06:35:20;96821.00;;;1.90;60.22
73024;BME280;61199;47.526;8.538;2023-02-28T06:37:47;96833.53;;;1.98;60.02
73024;BME280;61199;47.526;8.538;2023-02-28T06:40:14;96827.75;;;1.93;59.60
73024;BME280;61199;47.526;8.538;2023-02-28T06:42:40;96833.06;;;1.90;60.05
73024;BME280;61199;47.526;8.538;2023-02-28T06:45:07;96833.09;;;2.07;59.67
73024;BME280;61199;47.526;8.538;2023-02-28T06:47:40;96836.56;;;2.24;59.33
73024;BME280;61199;47.526;8.538;2023-02-28T06:50:12;96840.13;;;2.22;59.01
73024;BME280;61199;47.526;8.538;2023-02-28T06:52:39;96851.97;;;2.26;59.00
73024;BME280;61199;47.526;8.538;2023-02-28T06:55:06;96844.38;;;2.23;58.77
73024;BME280;61199;47.526;8.538;2023-02-28T06:57:34;96848.28;;;1.96;59.24
73024;BME280;61199;47.526;8.538;2023-02-28T07:00:05;96845.25;;;2.05;59.46
73024;BME280;61199;47.526;8.538;2023-02-28T07:02:35;96843.59;;;1.85;59.61
73024;BME280;61199;47.526;8.538;2023-02-28T07:05:01;96838.53;;;1.65;60.30
73024;BME280;61199;47.526;8.538;2023-02-28T07:07:28;96848.16;;;1.62;59.97
73024;BME280;61199;47.526;8.538;2023-02-28T07:09:54;96849.00;;;1.44;60.41
73024;BME280;61199;47.526;8.538;2023-02-28T07:12:20;96861.69;;;1.30;61.03
73024;BME280;61199;47.526;8.538;2023-02-28T07:14:47;96858.34;;;1.28;60.92
73024;BME280;61199;47.526;8.538;2023-02-28T07:17:13;96867.38;;;1.18;61.92
73024;BME280;61199;47.526;8.538;2023-02-28T07:19:40;96863.22;;;1.34;61.11
73024;BME280;61199;47.526;8.538;2023-02-28T07:22:07;96857.66;;;1.24;61.67
73024;BME280;61199;47.526;8.538;2023-02-28T07:24:33;96862.94;;;1.21;61.53
73024;BME280;61199;47.526;8.538;2023-02-28T07:27:00;96862.94;;;1.21;61.35
73024;BME280;61199;47.526;8.538;2023-02-28T07:29:27;96856.25;;;1.54;60.72
73024;BME280;61199;47.526;8.538;2023-02-28T07:31:54;96858.63;;;1.40;61.26
73024;BME280;61199;47.526;8.538;2023-02-28T07:34:20;96860.88;;;1.48;60.22
73024;BME280;61199;47.526;8.538;2023-02-28T07:36:47;96855.28;;;1.75;60.08
73024;BME280;61199;47.526;8.538;2023-02-28T07:39:13;96861.25;;;1.94;59.37
73024;BME280;61199;47.526;8.538;2023-02-28T07:41:40;96857.94;;;1.74;60.09
73024;BME280;61199;47.526;8.538;2023-02-28T07:44:10;96868.00;;;1.61;60.63
73024;BME280;61199;47.526;8.538;2023-02-28T07:46:37;96858.22;;;1.68;60.21
73024;BME280;61199;47.526;8.538;2023-02-28T07:49:04;96870.16;;;1.33;61.40
73024;BME280;61199;47.526;8.538;2023-02-28T07:51:31;96880.94;;;1.41;61.34
73024;BME280;61199;47.526;8.538;2023-02-28T07:53:58;96874.31;;;1.36;61.14
73024;BME280;61199;47.526;8.538;2023-02-28T07:56:24;96875.03;;;1.58;60.44
73024;BME280;61199;47.526;8.538;2023-02-28T07:58:51;96873.56;;;1.52;60.56
73024;BME280;61199;47.526;8.538;2023-02-28T08:01:17;96869.50;;;1.65;60.40
73024;BME280;61199;47.526;8.538;2023-02-28T08:03:45;96877.28;;;1.27;61.22
73024;BME280;61199;47.526;8.538;2023-02-28T08:06:21;96880.00;;;1.05;61.72
73024;BME280;61199;47.526;8.538;2023-02-28T08:08:48;96892.59;;;1.11;62.15
73024;BME280;61199;47.526;8.538;2023-02-28T08:11:16;96881.78;;;1.42;61.05
73024;BME280;61199;47.526;8.538;2023-02-28T08:13:44;96886.66;;;1.29;61.57
73024;BME280;61199;47.526;8.538;2023-02-28T08:16:12;96889.72;;;1.37;61.09
73024;BME280;61199;47.526;8.538;2023-02-28T08:18:43;96877.22;;;1.10;62.01
73024;BME280;61199;47.526;8.538;2023-02-28T08:21:10;96890.69;;;1.16;62.16
73024;BME280;61199;47.526;8.538;2023-02-28T08:23:37;96889.06;;;1.14;62.33
73024;BME280;61199;47.526;8.538;2023-02-28T08:26:04;96894.88;;;1.19;61.37
73024;BME280;61199;47.526;8.538;2023-02-28T08:28:30;96895.03;;;1.34;61.41
73024;BME280;61199;47.526;8.538;2023-02-28T08:30:57;96896.25;;;1.26;61.06
73024;BME280;61199;47.526;8.538;2023-02-28T08:33:24;96904.84;;;1.26;61.13
73024;BME280;61199;47.526;8.538;2023-02-28T08:35:53;96909.31;;;1.03;61.64
73024;BME280;61199;47.526;8.538;2023-02-28T08:38:20;96906.28;;;0.93;62.47
73024;BME280;61199;47.526;8.538;2023-02-28T08:40:47;96903.22;;;1.05;62.47
73024;BME280;61199;47.526;8.538;2023-02-28T08:43:13;96900.03;;;1.19;61.76
73024;BME280;61199;47.526;8.538;2023-02-28T08:45:40;96901.06;;;0.95;62.16
73024;BME280;61199;47.526;8.538;2023-02-28T08:48:06;96892.44;;;0.96;62.48
73024;BME280;61199;47.526;8.538;2023-02-28T08:50:33;96896.25;;;1.26;61.96
73024;BME280;61199;47.526;8.538;2023-02-28T08:52:59;96899.88;;;1.22;62.09
73024;BME280;61199;47.526;8.538;2023-02-28T08:55:26;96896.91;;;1.49;61.18
73024;BME280;61199;47.526;8.538;2023-02-28T08:57:52;96903.19;;;1.81;60.12
73024;BME280;61199;47.526;8.538;2023-02-28T09:00:19;96905.56;;;2.04;59.37
73024;BME280;61199;47.526;8.538;2023-02-28T09:02:45;96910.47;;;1.91;59.73
73024;BME280;61199;47.526;8.538;2023-02-28T09:05:12;96918.41;;;1.87;59.41
73024;BME280;61199;47.526;8.538;2023-02-28T09:07:38;96913.31;;;1.85;59.75
73024;BME280;61199;47.526;8.538;2023-02-28T09:10:05;96917.50;;;1.88;60.00
73024;BME280;61199;47.526;8.538;2023-02-28T09:12:34;96921.34;;;1.98;58.64
73024;BME280;61199;47.526;8.538;2023-02-28T09:15:01;96923.16;;;1.96;59.82
73024;BME280;61199;47.526;8.538;2023-02-28T09:17:28;96920.31;;;2.02;59.31
73024;BME280;61199;47.526;8.538;2023-02-28T09:19:56;96930.63;;;2.02;59.44
73024;BME280;61199;47.526;8.538;2023-02-28T09:22:23;96921.72;;;2.26;58.35
73024;BME280;61199;47.526;8.538;2023-02-28T09:24:50;96924.25;;;2.09;59.18
73024;BME280;61199;47.526;8.538;2023-02-28T09:27:16;96918.56;;;2.38;58.43
73024;BME280;61199;47.526;8.538;2023-02-28T09:29:42;96920.03;;;2.60;57.68
73024;BME280;61199;47.526;8.538;2023-02-28T09:32:09;96923.00;;;2.53;57.04
73024;BME280;61199;47.526;8.538;2023-02-28T09:34:35;96922.47;;;2.28;57.29
73024;BME280;61199;47.526;8.538;2023-02-28T09:37:03;96928.28;;;2.33;57.53
73024;BME280;61199;47.526;8.538;2023-02-28T09:39:29;96926.56;;;2.15;58.08
73024;BME280;61199;47.526;8.538;2023-02-28T09:41:56;96937.75;;;2.32;57.47
73024;BME280;61199;47.526;8.538;2023-02-28T09:44:37;96929.06;;;2.52;56.87
73024;BME280;61199;47.526;8.538;2023-02-28T09:49:47;96936.00;;;2.85;55.90
73024;BME280;61199;47.526;8.538;2023-02-28T09:52:41;96943.41;;;2.40;56.37
73024;BME280;61199;47.526;8.538;2023-02-28T09:57:46;96940.56;;;2.28;56.94
73024;BME280;61199;47.526;8.538;2023-02-28T10:00:19;96943.28;;;2.43;56.96
73024;BME280;61199;47.526;8.538;2023-02-28T10:06:12;96940.66;;;2.78;56.00
73024;BME280;61199;47.526;8.538;2023-02-28T10:08:50;96943.31;;;2.77;55.92
73024;BME280;61199;47.526;8.538;2023-02-28T10:11:20;96940.22;;;2.87;55.79
73024;BME280;61199;47.526;8.538;2023-02-28T10:14:13;96938.34;;;2.72;55.95
73024;BME280;61199;47.526;8.538;2023-02-28T10:17:02;96946.75;;;2.78;56.18
73024;BME280;61199;47.526;8.538;2023-02-28T10:19:43;96951.91;;;2.78;56.33
73024;BME280;61199;47.526;8.538;2023-02-28T10:22:28;96958.78;;;2.95;55.74
73024;BME280;61199;47.526;8.538;2023-02-28T10:24:57;96964.84;;;2.78;56.64
73024;BME280;61199;47.526;8.538;2023-02-28T10:27:31;96971.25;;;3.04;56.21
73024;BME280;61199;47.526;8.538;2023-02-28T10:30:01;96973.44;;;3.12;55.89
73024;BME280;61199;47.526;8.538;2023-02-28T10:32:35;96980.81;;;2.69;56.37
73024;BME280;61199;47.526;8.538;2023-02-28T10:35:20;96974.41;;;2.59;56.87
73024;BME280;61199;47.526;8.538;2023-02-28T10:37:56;96976.06;;;2.24;57.89
73024;BME280;61199;47.526;8.538;2023-02-28T10:43:11;96980.09;;;2.11;58.24
73024;BME280;61199;47.526;8.538;2023-02-28T10:45:55;96977.59;;;2.10;58.59
73024;BME280;61199;47.526;8.538;2023-02-28T11:01:24;96976.09;;;2.41;58.21
73024;BME280;61199;47.526;8.538;2023-02-28T11:03:51;96982.13;;;2.42;58.23
73024;BME280;61199;47.526;8.538;2023-02-28T11:06:25;96981.34;;;2.21;58.36
73024;BME280;61199;47.526;8.538;2023-02-28T11:08:56;96983.09;;;2.39;57.85
73024;BME280;61199;47.526;8.538;2023-02-28T11:11:25;96976.78;;;2.45;58.05
73024;BME280;61199;47.526;8.538;2023-02-28T11:13:56;96997.78;;;2.39;57.53
73024;BME280;61199;47.526;8.538;2023-02-28T11:16:35;96984.03;;;2.20;57.82
73024;BME280;61199;47.526;8.538;2023-02-28T11:19:04;96981.34;;;2.21;57.62
73024;BME280;61199;47.526;8.538;2023-02-28T11:21:35;96980.97;;;2.12;58.36
73024;BME280;61199;47.526;8.538;2023-02-28T11:24:22;96978.88;;;2.20;58.56
73024;BME280;61199;47.526;8.538;2023-02-28T11:26:50;96968.72;;;2.34;57.81
73024;BME280;61199;47.526;8.538;2023-02-28T11:29:32;96972.09;;;2.53;57.61
73024;BME280;61199;47.526;8.538;2023-02-28T11:34:40;96967.66;;;2.73;55.90
73024;BME280;61199;47.526;8.538;2023-02-28T11:37:27;96975.44;;;2.55;57.07
73024;BME280;61199;47.526;8.538;2023-02-28T11:39:54;96976.78;;;2.45;57.39
73024;BME280;61199;47.526;8.538;2023-02-28T11:45:03;96973.28;;;2.29;57.21
73024;BME280;61199;47.526;8.538;2023-02-28T11:48:39;96978.47;;;2.46;57.43
73024;BME280;61199;47.526;8.538;2023-02-28T11:50:45;96982.63;;;2.67;56.45
73024;BME280;61199;47.526;8.538;2023-02-28T11:55:55;96987.25;;;3.12;55.91
73024;BME280;61199;47.526;8.538;2023-02-28T11:58:37;96984.94;;;3.06;55.80
73024;BME280;61199;47.526;8.538;2023-02-28T12:01:37;96982.53;;;3.03;55.53
73024;BME280;61199;47.526;8.538;2023-02-28T12:06:36;96978.16;;;2.87;56.11
73024;BME280;61199;47.526;8.538;2023-02-28T12:09:38;96981.91;;;2.98;56.18
73024;BME280;61199;47.526;8.538;2023-02-28T12:18:05;96971.59;;;2.63;56.65
73024;BME280;61199;47.526;8.538;2023-02-28T12:20:46;96976.56;;;2.84;56.75
73024;BME280;61199;47.526;8.538;2023-02-28T12:25:57;96976.72;;;2.11;57.61
73024;BME280;61199;47.526;8.538;2023-02-28T12:28:31;96973.47;;;2.06;58.40
73024;BME280;61199;47.526;8.538;2023-02-28T12:31:11;96966.91;;;2.17;58.22
73024;BME280;61199;47.526;8.538;2023-02-28T12:33:47;96967.63;;;2.21;57.99
73024;BME280;61199;47.526;8.538;2023-02-28T12:36:18;96972.06;;;2.36;57.78
73024;BME280;61199;47.526;8.538;2023-02-28T12:39:01;96964.13;;;2.57;57.35
73024;BME280;61199;47.526;8.538;2023-02-28T12:41:44;96965.97;;;2.72;57.40
73024;BME280;61199;47.526;8.538;2023-02-28T12:44:21;96972.72;;;2.58;57.61
73024;BME280;61199;47.526;8.538;2023-02-28T12:46:51;96972.03;;;2.54;57.63
73024;BME280;61199;47.526;8.538;2023-02-28T12:53:02;96964.84;;;2.78;56.73
73024;BME280;61199;47.526;8.538;2023-02-28T12:58:31;96964.38;;;2.70;57.38
73024;BME280;61199;47.526;8.538;2023-02-28T13:09:12;96962.84;;;2.30;58.66
73024;BME280;61199;47.526;8.538;2023-02-28T13:11:51;96955.56;;;2.57;57.73
73024;BME280;61199;47.526;8.538;2023-02-28T13:14:28;96960.91;;;2.87;57.56
73024;BME280;61199;47.526;8.538;2023-02-28T13:19:35;96952.38;;;2.69;57.31
73024;BME280;61199;47.526;8.538;2023-02-28T13:22:03;96949.34;;;2.78;57.38
73024;BME280;61199;47.526;8.538;2023-02-28T13:24:54;96956.16;;;2.62;57.36
73024;BME280;61199;47.526;8.538;2023-02-28T13:27:32;96956.56;;;2.88;57.50
73024;BME280;61199;47.526;8.538;2023-02-28T13:30:00;96952.63;;;2.98;57.49
73024;BME280;61199;47.526;8.538;2023-02-28T13:32:33;96955.72;;;3.04;56.94
73024;BME280;61199;47.526;8.538;2023-02-28T13:39:57;96957.19;;;3.10;60.69
73024;BME280;61199;47.526;8.538;2023-02-28T13:47:44;96963.25;;;2.92;57.55
73024;BME280;61199;47.526;8.538;2023-02-28T14:04:37;96970.31;;;2.88;57.44
73024;BME280;61199;47.526;8.538;2023-02-28T14:07:18;96967.50;;;2.76;57.36
73024;BME280;61199;47.526;8.538;2023-02-28T14:09:55;96961.19;;;2.98;56.97
73024;BME280;61199;47.526;8.538;2023-02-28T14:12:52;96960.50;;;3.12;56.42
73024;BME280;61199;47.526;8.538;2023-02-28T14:18:21;96969.34;;;3.25;56.38
73024;BME280;61199;47.526;8.538;2023-02-28T14:21:42;96963.34;;;3.07;56.64
73024;BME280;61199;47.526;8.538;2023-02-28T14:31:35;96968.13;;;2.98;56.83
73024;BME280;61199;47.526;8.538;2023-02-28T14:34:17;96977.03;;;3.09;57.11
73024;BME280;61199;47.526;8.538;2023-02-28T14:36:48;96966.06;;;2.87;57.68
73024;BME280;61199;47.526;8.538;2023-02-28T14:39:19;96968.72;;;3.20;57.15
73024;BME280;61199;47.526;8.538;2023-02-28T14:41:46;96967.56;;;3.42;56.17
73024;BME280;61199;47.526;8.538;2023-02-28T14:46:45;96975.78;;;3.50;55.61
73024;BME280;61199;47.526;8.538;2023-02-28T14:49:28;96975.78;;;3.50;56.02
73024;BME280;61199;47.526;8.538;2023-02-28T14:52:22;96981.44;;;3.24;56.75
73024;BME280;61199;47.526;8.538;2023-02-28T14:54:58;96970.50;;;3.19;57.03
73024;BME280;61199;47.526;8.538;2023-02-28T14:57:28;96971.84;;;3.09;56.96
73024;BME280;61199;47.526;8.538;2023-02-28T15:00:09;96981.91;;;3.15;57.19
73024;BME280;61199;47.526;8.538;2023-02-28T15:02:39;96978.84;;;3.07;57.14
73024;BME280;61199;47.526;8.538;2023-02-28T15:07:38;96989.97;;;3.26;56.73
73024;BME280;61199;47.526;8.538;2023-02-28T15:13:07;96993.47;;;3.08;57.65
73024;BME280;61199;47.526;8.538;2023-02-28T15:15:45;96998.47;;;3.28;57.23
73024;BME280;61199;47.526;8.538;2023-02-28T15:21:02;97003.19;;;3.54;56.43
73024;BME280;61199;47.526;8.538;2023-02-28T15:23:30;96997.75;;;3.76;55.48
73024;BME280;61199;47.526;8.538;2023-02-28T15:25:58;96995.34;;;3.88;55.38
73024;BME280;61199;47.526;8.538;2023-02-28T15:28:25;96993.19;;;3.96;55.47
73024;BME280;61199;47.526;8.538;2023-02-28T15:30:58;96999.38;;;3.94;55.04
73024;BME280;61199;47.526;8.538;2023-02-28T15:33:30;97006.16;;;3.64;56.51
73024;BME280;61199;47.526;8.538;2023-02-28T15:36:05;96996.56;;;3.49;58.76
73024;BME280;61199;47.526;8.538;2023-02-28T15:38:34;97005.53;;;3.59;57.04
73024;BME280;61199;47.526;8.538;2023-02-28T15:41:01;97004.22;;;3.35;57.23
73024;BME280;61199;47.526;8.538;2023-02-28T15:43:36;97008.75;;;3.47;56.89
73024;BME280;61199;47.526;8.538;2023-02-28T15:46:07;97005.34;;;3.29;56.97